»·PEaware :: AAL9860 KLAS-KIWA

AAL9860 :: KLAS-KIWA

FLIGHT INFORMATION

Flight Status: Arrived
Operator:
American Airlines
More flights by this operator :: More flights under this callsign
Pilot: Kevin M. (7)
Aircraft: BOEING 737-800
(B738)
More flights by this aircraft type
Origin: KLAS McCarran Intl
United States
Destination: KIWA Williams Gateway
United States
More flights between these airports :: More routes between these airports
Route: PRFUM4 DRK DSERT DSERT2
File this flight plan on PilotEdge
Remarks:
Altitude:
(Current/Filed)
27,000ft
Speed:
(Current/Filed)
459kts
Departed: 29-Nov-17 09:12 AM
Arrived: 29-Nov-17 09:58 AM
Distance/Time
Traveled:
239nm/0:46
Distance/Time
To Go:
Arrived

Flight Plot

Page will automatically refresh every two minutes.

Flight plan parsing failed; only flown route is shown


Map Options




Map Legend


Flown Route
Filed Route
Departure Airport
Arrival Airport
Navaid (VOR, NDB)
Fix

Horizontal Profiles

Position Reports

Time Latitude Longitude Heading Altitude Ground
Speed
29-Nov-17 08:51 36.079933 -115.147127 61 2149ft 0kts
29-Nov-17 08:52 36.079933 -115.147127 61 2149ft 0kts
29-Nov-17 08:53 36.079933 -115.147127 61 2149ft 0kts
29-Nov-17 08:54 36.079933 -115.147127 61 2149ft 0kts
29-Nov-17 08:55 36.079933 -115.147127 61 2149ft 0kts
29-Nov-17 08:56 36.079933 -115.147127 61 2149ft 0kts
29-Nov-17 08:57 36.079933 -115.147127 61 2149ft 0kts
29-Nov-17 08:58 36.079933 -115.147127 61 2149ft 0kts
29-Nov-17 08:59 36.079933 -115.147127 61 2149ft 0kts
29-Nov-17 09:00 36.079933 -115.147127 61 2149ft 0kts
29-Nov-17 09:01 36.079933 -115.147127 61 2149ft 0kts
29-Nov-17 09:02 36.079933 -115.147127 61 2149ft 0kts
29-Nov-17 09:03 36.079933 -115.147127 61 2149ft 0kts
29-Nov-17 09:04 36.079898 -115.147207 61 2149ft 2kts
29-Nov-17 09:05 36.079942 -115.147868 146 2149ft 2kts
29-Nov-17 09:06 36.080036 -115.147926 155 2149ft 0kts
29-Nov-17 09:07 36.080036 -115.147926 155 2149ft 0kts
29-Nov-17 09:08 36.079247 -115.147482 156 2149ft 4kts
29-Nov-17 09:09 36.078286 -115.143787 92 2149ft 10kts
29-Nov-17 09:10 36.078260 -115.137722 89 2149ft 23kts
29-Nov-17 09:11 36.078271 -115.129834 90 2149ft 21kts
29-Nov-17 09:12 36.078243 -115.122854 104 2149ft 14kts
29-Nov-17 09:13 36.077481 -115.121502 129 2149ft 0kts
29-Nov-17 09:14 36.077481 -115.121502 129 2149ft 0kts
29-Nov-17 09:15 36.077481 -115.121502 129 2149ft 0kts
29-Nov-17 09:16 36.076449 -115.122071 270 2149ft 9kts
29-Nov-17 09:17 36.076594 -115.162341 269 3326ft 183kts
29-Nov-17 09:18 36.074598 -115.233956 253 5364ft 258kts
29-Nov-17 09:19 36.017297 -115.283120 195 7004ft 270kts
29-Nov-17 09:20 35.944965 -115.291251 164 7003ft 269kts
29-Nov-17 09:21 35.874420 -115.255353 134 10282ft 295kts
29-Nov-17 09:22 35.839390 -115.149004 108 11967ft 383kts
29-Nov-17 09:23 35.824568 -115.015014 84 15134ft 423kts
29-Nov-17 09:24 35.836463 -114.867519 87 18367ft 449kts
29-Nov-17 09:25 35.848121 -114.711085 86 21446ft 473kts
29-Nov-17 09:26 35.839853 -114.552273 126 23122ft 467kts
29-Nov-17 09:27 35.763231 -114.422795 126 24174ft 484kts
29-Nov-17 09:28 35.691330 -114.288037 128 26810ft 496kts
29-Nov-17 09:29 35.615439 -114.146282 128 27233ft 498kts
29-Nov-17 09:30 35.542871 -114.010578 128 27238ft 497kts
29-Nov-17 09:31 35.472116 -113.879624 128 27239ft 497kts
29-Nov-17 09:32 35.394690 -113.740064 129 27239ft 496kts
29-Nov-17 09:33 35.317241 -113.600357 128 27239ft 498kts
29-Nov-17 09:34 35.239760 -113.460183 129 27240ft 497kts
29-Nov-17 09:35 35.166038 -113.326669 128 27234ft 497kts
29-Nov-17 09:36 35.088958 -113.186516 129 27245ft 496kts
29-Nov-17 09:37 35.012377 -113.047282 128 27266ft 497kts
29-Nov-17 09:38 34.935722 -112.907340 129 27271ft 499kts
29-Nov-17 09:39 34.869261 -112.786013 129 27278ft 500kts
29-Nov-17 09:40 34.793210 -112.646680 128 27279ft 500kts
29-Nov-17 09:41 34.717503 -112.507823 129 27280ft 500kts
29-Nov-17 09:42 34.662018 -112.353255 115 27286ft 511kts
29-Nov-17 09:43 34.612243 -112.198027 116 27275ft 510kts
29-Nov-17 09:44 34.561425 -112.038400 116 27276ft 510kts
29-Nov-17 09:45 34.510950 -111.879810 115 26610ft 500kts
29-Nov-17 09:46 34.459836 -111.730670 133 23474ft 441kts
29-Nov-17 09:47 34.365584 -111.694372 192 21231ft 336kts
29-Nov-17 09:48 34.279247 -111.715969 197 19642ft 304kts
29-Nov-17 09:49 34.199599 -111.740064 197 18101ft 318kts
29-Nov-17 09:50 34.100001 -111.770276 196 16223ft 393kts
29-Nov-17 09:51 33.994023 -111.789663 165 15885ft 400kts
29-Nov-17 09:52 33.902779 -111.710764 149 15828ft 398kts
29-Nov-17 09:53 33.824591 -111.646246 148 12968ft 384kts
29-Nov-17 09:54 33.725677 -111.619001 189 9281ft 373kts
29-Nov-17 09:55 33.633194 -111.633913 189 7896ft 282kts
29-Nov-17 09:56 33.558558 -111.645892 189 5868ft 268kts
29-Nov-17 09:57 33.492742 -111.679480 210 5008ft 235kts
29-Nov-17 09:58 33.444022 -111.712099 210 4902ft 183kts
29-Nov-17 09:59 33.407691 -111.733832 196 4056ft 171kts
29-Nov-17 10:00 33.365782 -111.723161 135 2778ft 158kts
29-Nov-17 10:01 33.331369 -111.682082 134 1796ft 151kts
29-Nov-17 10:02 33.308975 -111.655834 135 1389ft 76kts
29-Nov-17 10:03 33.298944 -111.644119 135 1389ft 32kts
29-Nov-17 10:04 33.293765 -111.647519 224 1389ft 18kts
29-Nov-17 10:05 33.296435 -111.651663 315 1389ft 27kts
29-Nov-17 10:06 33.302378 -111.658616 316 1389ft 29kts
29-Nov-17 10:07 33.307033 -111.665061 269 1389ft 22kts
29-Nov-17 10:08 33.308337 -111.668020 272 1389ft 6kts
29-Nov-17 10:09 33.308340 -111.668159 269 1389ft 0kts

Navigation Log

Ident Type
Flight plan parsing failed, navigation log unavailable